Map

Track Data

SID SEASON NUMBER BASIN SUBBASIN NAME ISO_TIME NATURE LAT LON WMO_WIND WMO_PRES WMO_AGENCY TRACK_TYPE DIST2LAND LANDFALL IFLAG USA_AGENCY USA_ATCF_ID USA_LAT USA_LON USA_RECORD USA_STATUS USA_WIND USA_PRES USA_SSHS USA_R34_NE USA_R34_SE USA_R34_SW USA_R34_NW USA_R50_NE USA_R50_SE USA_R50_SW USA_R50_NW USA_R64_NE USA_R64_SE USA_R64_SW USA_R64_NW USA_POCI USA_ROCI USA_RMW USA_EYE TOKYO_LAT TOKYO_LON TOKYO_GRADE TOKYO_WIND TOKYO_PRES TOKYO_R50_DIR TOKYO_R50_LONG TOKYO_R50_SHORT TOKYO_R30_DIR TOKYO_R30_LONG TOKYO_R30_SHORT TOKYO_LAND CMA_LAT CMA_LON CMA_CAT CMA_WIND CMA_PRES HKO_LAT HKO_LON HKO_CAT HKO_WIND HKO_PRES NEWDELHI_LAT NEWDELHI_LON NEWDELHI_GRADE NEWDELHI_WIND NEWDELHI_PRES NEWDELHI_CI NEWDELHI_DP NEWDELHI_POCI REUNION_LAT REUNION_LON REUNION_TYPE REUNION_WIND REUNION_PRES REUNION_TNUM REUNION_CI REUNION_RMW REUNION_R34_NE REUNION_R34_SE REUNION_R34_SW REUNION_R34_NW REUNION_R50_NE REUNION_R50_SE REUNION_R50_SW REUNION_R50_NW REUNION_R64_NE REUNION_R64_SE REUNION_R64_SW REUNION_R64_NW BOM_LAT BOM_LON BOM_TYPE BOM_WIND BOM_PRES BOM_TNUM BOM_CI BOM_RMW BOM_R34_NE BOM_R34_SE BOM_R34_SW BOM_R34_NW BOM_R50_NE BOM_R50_SE BOM_R50_SW BOM_R50_NW BOM_R64_NE BOM_R64_SE BOM_R64_SW BOM_R64_NW BOM_ROCI BOM_POCI BOM_EYE BOM_POS_METHOD BOM_PRES_METHOD NADI_LAT NADI_LON NADI_CAT NADI_WIND NADI_PRES WELLINGTON_LAT WELLINGTON_LON WELLINGTON_WIND WELLINGTON_PRES DS824_LAT DS824_LON DS824_STAGE DS824_WIND DS824_PRES TD9636_LAT TD9636_LON TD9636_STAGE TD9636_WIND TD9636_PRES TD9635_LAT TD9635_LON TD9635_WIND TD9635_PRES TD9635_ROCI NEUMANN_LAT NEUMANN_LON NEUMANN_CLASS NEUMANN_WIND NEUMANN_PRES MLC_LAT MLC_LON MLC_CLASS MLC_WIND MLC_PRES USA_GUST BOM_GUST BOM_GUST_PER REUNION_GUST REUNION_GUST_PER USA_SEAHGT USA_SEARAD_NE USA_SEARAD_SE USA_SEARAD_SW USA_SEARAD_NW STORM_SPEED STORM_DIR
1877237N30302 1877 23 NA NA NOT_NAMED 1877-08-24 12:00:00 TS 29.8000 -57.6000 main 1509 1509 _____________O -1 29.8000 -57.6000 TS 35 7 45
1877237N30302 1877 23 NA NA NOT_NAMED 1877-08-24 15:00:00 TS 30.0626 -57.3004 main 1553 1553 _____________P -1 30.0626 -57.3004 TS 35 7 46
1877237N30302 1877 23 NA NA NOT_NAMED 1877-08-24 18:00:00 TS 30.3000 -57.0000 main 1587 1587 _____________O -1 30.3000 -57.0000 TS 35 7 50
1877237N30302 1877 23 NA NA NOT_NAMED 1877-08-24 21:00:00 TS 30.4999 -56.6997 main 1622 1622 _____________P -1 30.4999 -56.6997 TS 35 7 52
1877237N30302 1877 23 NA NA NOT_NAMED 1877-08-25 00:00:00 TS 30.7000 -56.4000 main 1626 1614 _____________O -1 30.7000 -56.4000 TS 35 7 49
1877237N30302 1877 23 NA NA NOT_NAMED 1877-08-25 03:00:00 TS 30.9499 -56.1000 main 1619 1603 _____________P -1 30.9499 -56.1000 TS 35 7 46
1877237N30302 1877 23 NA NA NOT_NAMED 1877-08-25 06:00:00 TS 31.2000 -55.8000 main 1603 1592 _____________O -1 31.2000 -55.8000 TS 35 7 48
1877237N30302 1877 23 NA NA NOT_NAMED 1877-08-25 09:00:00 TS 31.4074 -55.5073 main 1597 1587 _____________P -1 31.4074 -55.5073 TS 37 7 52
1877237N30302 1877 23 NA NA NOT_NAMED 1877-08-25 12:00:00 TS 31.6000 -55.2000 main 1592 1584 _____________O -1 31.6000 -55.2000 TS 40 7 55
1877237N30302 1877 23 NA NA NOT_NAMED 1877-08-25 15:00:00 TS 31.8000 -54.8499 main 1587 1572 _____________P -1 31.8000 -54.8499 TS 40 7 56
1877237N30302 1877 23 NA NA NOT_NAMED 1877-08-25 18:00:00 TS 32.0000 -54.5000 main 1575 1560 _____________O -1 32.0000 -54.5000 TS 40 7 54
1877237N30302 1877 23 NA NA NOT_NAMED 1877-08-25 21:00:00 TS 32.1999 -54.1923 main 1564 1549 _____________P -1 32.1999 -54.1923 TS 40 6 52
1877237N30302 1877 23 NA NA NOT_NAMED 1877-08-26 00:00:00 TS 32.4000 -53.9000 main 1553 1539 _____________O -1 32.4000 -53.9000 TS 40 6 51
1877237N30302 1877 23 NA NA NOT_NAMED 1877-08-26 03:00:00 TS 32.5999 -53.5999 main 1543 1529 _____________P -1 32.5999 -53.5999 TS 40 6 52
1877237N30302 1877 23 NA NA NOT_NAMED 1877-08-26 06:00:00 TS 32.8000 -53.3000 main 1533 1513 _____________O -1 32.8000 -53.3000 TS 40 6 52
1877237N30302 1877 23 NA NA NOT_NAMED 1877-08-26 09:00:00 TS 32.9924 -53.0072 main 1513 1491 _____________P -1 32.9924 -53.0072 TS 42 6 52
1877237N30302 1877 23 NA NA NOT_NAMED 1877-08-26 12:00:00 TS 33.2000 -52.7000 main 1491 1470 _____________O -1 33.2000 -52.7000 TS 45 7 50
1877237N30302 1877 23 NA NA NOT_NAMED 1877-08-26 15:00:00 TS 33.4424 -52.3649 main 1470 1438 _____________P -1 33.4424 -52.3649 TS 45 8 49
1877237N30302 1877 23 NA NA NOT_NAMED 1877-08-26 18:00:00 TS 33.7000 -52.0000 main 1439 1418 _____________O -1 33.7000 -52.0000 TS 45 8 51
1877237N30302 1877 23 NA NA NOT_NAMED 1877-08-26 21:00:00 TS 33.9499 -51.6073 main 1419 1389 _____________P -1 33.9499 -51.6073 TS 45 8 53
1877237N30302 1877 23 NA NA NOT_NAMED 1877-08-27 00:00:00 TS 34.2000 -51.2000 main 1390 1371 _____________O -1 34.2000 -51.2000 TS 45 8 53
1877237N30302 1877 23 NA NA NOT_NAMED 1877-08-27 03:00:00 TS 34.4499 -50.7923 main 1372 1343 _____________P -1 34.4499 -50.7923 TS 45 8 53
1877237N30302 1877 23 NA NA NOT_NAMED 1877-08-27 06:00:00 TS 34.7000 -50.4000 main 1344 1317 _____________O -1 34.7000 -50.4000 TS 45 8 51
1877237N30302 1877 23 NA NA NOT_NAMED 1877-08-27 09:00:00 TS 34.9725 -50.0127 main 1317 1299 _____________P -1 34.9725 -50.0127 TS 45 8 49
1877237N30302 1877 23 NA NA NOT_NAMED 1877-08-27 12:00:00 TS 35.2000 -49.7000 main 1301 1292 _____________O -1 35.2000 -49.7000 TS 45 5 49
1877237N30302 1877 23 NA NA NOT_NAMED 1877-08-27 15:00:00 TS 35.3223 -49.5196 main 1294 1283 _____________P -1 35.3223 -49.5196 TS 45 3 51
1877237N30302 1877 23 NA NA NOT_NAMED 1877-08-27 18:00:00 TS 35.4000 -49.4000 main 1285 1276 _____________O -1 35.4000 -49.4000 TS 45 3 51
1877237N30302 1877 23 NA NA NOT_NAMED 1877-08-27 21:00:00 TS 35.5000 -49.2500 main 1278 1268 _____________P -1 35.5000 -49.2500 TS 45 3 51
1877237N30302 1877 23 NA NA NOT_NAMED 1877-08-28 00:00:00 TS 35.6000 -49.1000 main 1270 1261 _____________O -1 35.6000 -49.1000 TS 45 3 51
1877237N30302 1877 23 NA NA NOT_NAMED 1877-08-28 03:00:00 TS 35.7000 -48.9500 main 1264 1253 _____________P -1 35.7000 -48.9500 TS 45 3 51
1877237N30302 1877 23 NA NA NOT_NAMED 1877-08-28 06:00:00 TS 35.8000 -48.8000 main 1255 1247 _____________O -1 35.8000 -48.8000 TS 45 3 53
1877237N30302 1877 23 NA NA NOT_NAMED 1877-08-28 09:00:00 TS 35.8925 -48.6425 main 1249 1239 _____________P -1 35.8925 -48.6425 TS 45 3 51
1877237N30302 1877 23 NA NA NOT_NAMED 1877-08-28 12:00:00 TS 36.0000 -48.5000 main 1241 1231 _____________O -1 36.0000 -48.5000 TS 45 3 38
1877237N30302 1877 23 NA NA NOT_NAMED 1877-08-28 15:00:00 TS 36.1424 -48.3999 main 1233 1215 _____________P -1 36.1424 -48.3999 TS 42 3 28
1877237N30302 1877 23 NA NA NOT_NAMED 1877-08-28 18:00:00 TS 36.3000 -48.3000 main 1215 1204 _____________O -1 36.3000 -48.3000 TS 40 4 33
1877237N30302 1877 23 NA NA NOT_NAMED 1877-08-28 21:00:00 TS 36.4500 -48.1500 main 1196 1192 _____________P -1 36.4500 -48.1500 TS 40 4 39
1877237N30302 1877 23 NA NA NOT_NAMED 1877-08-29 00:00:00 TS 36.6000 -48.0000 main 1192 1181 _____________O -1 36.6000 -48.0000 TS 40 4 34
1877237N30302 1877 23 NA NA NOT_NAMED 1877-08-29 03:00:00 TS 36.7500 -47.8924 main 1184 1166 _____________P -1 36.7500 -47.8924 TS 40 3 27
1877237N30302 1877 23 NA NA NOT_NAMED 1877-08-29 06:00:00 TS 36.9000 -47.8000 main 1166 1156 _____________O -1 36.9000 -47.8000 TS 40 3 27
1877237N30302 1877 23 NA NA NOT_NAMED 1877-08-29 09:00:00 TS 37.0425 -47.7074 main 1159 1142 _____________P -1 37.0425 -47.7074 TS 40 3 27
1877237N30302 1877 23 NA NA NOT_NAMED 1877-08-29 12:00:00 TS 37.2000 -47.6000 main 1142 1125 _____________O -1 37.2000 -47.6000 TS 40 4 29
1877237N30302 1877 23 NA NA NOT_NAMED 1877-08-29 15:00:00 TS 37.3925 -47.4575 main 1125 1111 _____________P -1 37.3925 -47.4575 TS 37 5 31
1877237N30302 1877 23 NA NA NOT_NAMED 1877-08-29 18:00:00 TS 37.6000 -47.3000 main 1111 1094 _____________O -1 37.6000 -47.3000 TS 35 5 31
1877237N30302 1877 23 NA NA NOT_NAMED 1877-08-29 21:00:00 TS 37.8000 -47.1499 main 1098 1082 _____________P -1 37.8000 -47.1499 TS 35 5 31
1877237N30302 1877 23 NA NA NOT_NAMED 1877-08-30 00:00:00 TS 38.0000 -47.0000 main 1082 1066 _____________O -1 38.0000 -47.0000 TS 35 5 31
1877237N30302 1877 23 NA NA NOT_NAMED 1877-08-30 03:00:00 TS 38.2000 -46.8425 main 1070 1054 _____________P -1 38.2000 -46.8425 TS 35 5 31
1877237N30302 1877 23 NA NA NOT_NAMED 1877-08-30 06:00:00 TS 38.4000 -46.7000 main 1054 1038 _____________O -1 38.4000 -46.7000 TS 35 4 26
1877237N30302 1877 23 NA NA NOT_NAMED 1877-08-30 09:00:00 TS 38.6000 -46.5901 main 1038 1023 _____________P -1 38.6000 -46.5901 TS 35 4 21
1877237N30302 1877 23 NA NA NOT_NAMED 1877-08-30 12:00:00 TS 38.8000 -46.5000 main 1023 _____________O -1 38.8000 -46.5000 TS 35 4 20

About IBTrACS Database

This database is a web-friendly format of International Best Track Archive for Climate Stewardship (IBTrACS), a global best track data archive curated by NOAA dating back to 1842.

Updated: 2021-10-21